Time;durP1;ratioP1;P1;durP2;ratioP2;P2;SDS_P1;SDS_P2;PMS_P1;PMS_P2;Temp;Humidity;BMP_temperature;BMP_pressure;BME280_temperature;BME280_humidity;BME280_pressure;Samples;Min_cycle;Max_cycle;Signal;HPM_P1;HPM_P2
2022/08/17 00:04:16;;;;;;;1.88;1.35;;;;;;;20.80;100.00;100986.38;10543889;28;20403;-74
2022/08/17 00:09:19;;;;;;;1.77;0.88;;;;;;;20.85;100.00;101000.25;10526322;28;20469;-74
2022/08/17 00:14:20;;;;;;;1.73;1.08;;;;;;;20.73;100.00;101008.28;10526518;28;20040;-75
2022/08/17 00:19:24;;;;;;;0.98;0.88;;;;;;;20.47;100.00;101034.78;10545305;28;20418;-75
2022/08/17 00:24:27;;;;;;;2.38;1.63;;;;;;;20.85;100.00;101002.84;10509165;28;20376;-74
2022/08/17 00:29:28;;;;;;;3.75;1.50;;;;;;;20.87;100.00;100992.34;10525208;28;20101;-74
2022/08/17 00:34:30;;;;;;;1.98;1.55;;;;;;;20.80;100.00;100981.13;10525083;28;20047;-74
2022/08/17 00:39:34;;;;;;;1.73;1.10;;;;;;;20.88;100.00;100973.13;10524692;28;20105;-74
2022/08/17 00:44:36;;;;;;;1.55;1.23;;;;;;;20.89;100.00;100965.25;10542617;28;20134;-75
2022/08/17 00:49:37;;;;;;;3.38;1.60;;;;;;;20.85;100.00;100963.59;10524481;28;20066;-74
2022/08/17 00:54:43;;;;;;;2.20;1.40;;;;;;;20.85;100.00;100965.34;10524007;28;20044;-74
2022/08/17 00:59:51;;;;;;;1.73;1.33;;;;;;;20.73;100.00;100979.50;10524020;28;20097;-75
2022/08/17 01:05:06;;;;;;;3.42;1.30;;;;;;;20.84;100.00;100961.84;10442537;28;20071;-75
2022/08/17 01:10:11;;;;;;;2.42;1.00;;;;;;;20.80;100.00;100954.94;10440575;28;20095;-75
2022/08/17 01:15:36;;;;;;;2.97;1.70;;;;;;;20.70;100.00;100958.56;10458707;28;20052;-75
2022/08/17 01:20:43;;;;;;;1.55;1.10;;;;;;;20.66;100.00;100959.50;10440533;28;20044;-75
2022/08/17 01:25:51;;;;;;;1.80;1.30;;;;;;;20.46;100.00;100965.88;10424141;28;20076;-75
2022/08/17 01:30:55;;;;;;;1.98;1.15;;;;;;;20.21;100.00;100966.22;10440255;28;20063;-75
2022/08/17 01:35:59;;;;;;;1.08;0.88;;;;;;;20.15;100.00;100965.44;10439808;28;20045;-75
2022/08/17 01:41:06;;;;;;;1.02;0.82;;;;;;;19.72;100.00;100972.88;10439631;28;20055;-75
2022/08/17 01:46:15;;;;;;;2.95;0.98;;;;;;;19.50;100.00;100980.06;10440259;28;20049;-75
2022/08/17 01:51:18;;;;;;;1.52;1.40;;;;;;;19.55;100.00;100983.50;10449712;28;20053;-75
2022/08/17 01:56:23;;;;;;;1.20;0.85;;;;;;;19.69;100.00;100988.59;10480816;28;20068;-74
2022/08/17 02:01:29;;;;;;;1.33;0.98;;;;;;;19.64;100.00;100983.41;10480578;28;20151;-74
2022/08/17 02:06:34;;;;;;;1.23;1.13;;;;;;;19.55;100.00;100986.09;10498092;28;20040;-75
2022/08/17 02:11:56;;;;;;;0.82;0.68;;;;;;;19.40;100.00;100989.75;10480341;28;20476;-75
2022/08/17 02:16:58;;;;;;;5.45;2.67;;;;;;;19.14;100.00;100977.78;10498199;28;20040;-75
2022/08/17 02:22:00;;;;;;;2.38;1.45;;;;;;;19.10;100.00;100991.75;10480125;28;20036;-75
2022/08/17 02:27:02;;;;;;;1.95;1.30;;;;;;;19.18;100.00;100986.44;10484114;28;20047;-75
2022/08/17 02:32:05;;;;;;;2.03;0.70;;;;;;;19.22;100.00;100996.00;10488404;28;20040;-75
2022/08/17 02:37:07;;;;;;;5.47;1.38;;;;;;;19.11;100.00;101005.66;10471283;28;20044;-74
2022/08/17 02:42:09;;;;;;;1.90;1.52;;;;;;;19.23;100.00;100984.69;10506609;28;20048;-75
2022/08/17 02:47:11;;;;;;;2.03;1.40;;;;;;;18.99;100.00;100991.84;10489471;28;20041;-75
2022/08/17 02:52:15;;;;;;;2.15;1.40;;;;;;;19.14;100.00;100989.97;10487671;28;20052;-75
2022/08/17 02:57:37;;;;;;;1.00;0.75;;;;;;;19.23;100.00;100989.91;10505558;28;20072;-75
2022/08/17 03:02:41;;;;;;;2.42;1.60;;;;;;;19.20;100.00;100997.75;10486942;28;20113;-75
2022/08/17 03:07:42;;;;;;;2.10;1.27;;;;;;;19.31;100.00;100987.22;10487908;28;20044;-75
2022/08/17 03:12:45;;;;;;;2.38;1.52;;;;;;;19.50;100.00;100995.75;10488016;28;20049;-75
2022/08/17 03:17:47;;;;;;;3.47;2.13;;;;;;;19.39;100.00;100985.41;10486915;28;20044;-75
2022/08/17 03:22:54;;;;;;;4.13;2.42;;;;;;;19.47;100.00;100998.41;10486310;28;20048;-76
2022/08/17 03:28:04;;;;;;;3.47;1.95;;;;;;;19.54;100.00;100994.84;10505245;28;20048;-75
2022/08/17 03:33:09;;;;;;;2.70;1.77;;;;;;;19.69;100.00;100982.50;10485641;28;20490;-75
2022/08/17 03:38:12;;;;;;;4.03;1.95;;;;;;;19.70;100.00;100984.22;10484790;28;20049;-77
2022/08/17 03:43:19;;;;;;;5.70;1.92;;;;;;;19.79;100.00;100976.28;10486313;28;20044;-75
2022/08/17 03:59:21;;;;;;;3.00;1.73;;;;;;;19.86;100.00;100970.13;10503318;28;20116;-75
2022/08/17 04:04:26;;;;;;;3.77;2.53;;;;;;;20.04;100.00;100968.19;10486365;28;20127;-75
2022/08/17 04:09:28;;;;;;;2.92;2.30;;;;;;;19.98;100.00;100950.81;10484496;28;20396;-75
2022/08/17 04:14:34;;;;;;;2.22;1.77;;;;;;;19.97;100.00;100955.19;10484252;28;20492;-75
2022/08/17 04:19:54;;;;;;;1.92;1.35;;;;;;;19.92;100.00;100946.53;10469536;28;20049;-75
2022/08/17 04:24:55;;;;;;;1.83;1.33;;;;;;;19.87;100.00;100956.19;10501386;28;20044;-75
2022/08/17 04:29:59;;;;;;;2.08;1.38;;;;;;;19.90;100.00;100950.94;10483380;28;20052;-75
2022/08/17 04:35:01;;;;;;;4.70;1.60;;;;;;;19.89;100.00;100958.75;10483227;28;20054;-75
2022/08/17 04:45:28;;;;;;;1.60;1.30;;;;;;;19.90;100.00;100950.94;10482741;28;20070;-75
2022/08/17 04:50:41;;;;;;;1.95;1.35;;;;;;;19.88;100.00;100957.06;10483570;28;20040;-75
2022/08/17 04:55:45;;;;;;;2.35;1.83;;;;;;;19.89;100.00;100964.88;10501625;28;20089;-75
2022/08/17 05:00:46;;;;;;;3.10;2.08;;;;;;;19.74;100.00;100965.03;10500403;28;20438;-75
2022/08/17 05:05:48;;;;;;;3.40;2.00;;;;;;;19.81;100.00;100956.22;10500185;28;20513;-76
2022/08/17 05:10:50;;;;;;;1.02;0.98;;;;;;;19.78;100.00;100959.75;10465425;28;20052;-76
2022/08/17 05:15:55;;;;;;;2.83;2.35;;;;;;;19.94;100.00;100957.84;10500089;28;20040;-73
2022/08/17 05:20:57;;;;;;;3.53;1.75;;;;;;;19.95;100.00;100954.34;10483383;28;20504;-75
2022/08/17 05:25:58;;;;;;;2.30;1.35;;;;;;;20.04;100.00;100955.13;10482709;28;20047;-74
2022/08/17 05:31:02;;;;;;;3.25;2.15;;;;;;;20.34;100.00;100937.28;10499722;28;20445;-74
2022/08/17 05:36:07;;;;;;;3.35;2.08;;;;;;;20.33;100.00;100938.16;10481931;28;20529;-74
2022/08/17 05:41:09;;;;;;;2.72;2.38;;;;;;;20.47;100.00;100930.97;10499604;28;20056;-74
2022/08/17 05:46:18;;;;;;;3.20;1.88;;;;;;;20.56;100.00;100935.19;10484089;28;20044;-74
2022/08/17 05:51:30;;;;;;;3.13;1.83;;;;;;;20.80;100.00;100917.41;10481475;28;20044;-74
2022/08/17 05:57:11;;;;;;;5.13;2.30;;;;;;;20.74;100.00;100923.59;10500559;28;20123;-74
2022/08/17 06:02:31;;;;;;;;;;;;;;;20.75;100.00;100914.88;10464536;28;20049;-75
2022/08/17 06:07:57;;;;;;;5.03;2.67;;;;;;;20.81;100.00;100914.78;10482022;28;19935;-75
2022/08/17 06:13:20;;;;;;;3.53;2.70;;;;;;;21.02;100.00;100902.22;10480501;28;20094;-75
2022/08/17 06:18:27;;;;;;;1.27;1.15;;;;;;;21.37;100.00;100908.56;10480695;28;20518;-76
2022/08/17 06:23:35;;;;;;;7.93;2.65;;;;;;;21.42;100.00;100890.97;10480864;28;20450;-75
2022/08/17 06:28:47;;;;;;;3.40;2.22;;;;;;;21.79;100.00;100887.63;10483434;28;20041;-75
2022/08/17 06:33:49;;;;;;;5.05;2.05;;;;;;;21.99;100.00;100878.50;10498608;28;20041;-76
2022/08/17 06:39:01;;;;;;;4.50;2.30;;;;;;;22.12;100.00;100900.94;10480115;28;20041;-76
2022/08/17 06:44:20;;;;;;;2.08;1.52;;;;;;;22.28;100.00;100929.44;10500257;28;20052;-75
2022/08/17 06:49:57;;;;;;;4.75;2.17;;;;;;;22.29;100.00;100941.69;10479872;28;20083;-75
2022/08/17 06:55:19;;;;;;;3.00;2.00;;;;;;;22.24;100.00;100964.50;10479313;28;20055;-76
2022/08/17 07:00:25;;;;;;;7.00;1.83;;;;;;;22.35;100.00;100929.25;10497273;28;20470;-76
2022/08/17 07:05:41;;;;;;;2.05;1.80;;;;;;;22.28;100.00;100932.06;10479236;28;20055;-74
2022/08/17 07:10:53;;;;;;;2.47;1.73;;;;;;;22.46;100.00;100959.69;10480357;28;20102;-74
2022/08/17 07:16:06;;;;;;;1.45;1.35;;;;;;;22.28;100.00;100960.94;10485497;28;20596;-75
2022/08/17 07:21:22;;;;;;;1.20;1.10;;;;;;;22.51;100.00;100947.31;10462102;28;20506;-74
2022/08/17 07:26:27;;;;;;;2.73;1.30;;;;;;;22.65;100.00;100960.13;10457682;28;20131;-76
2022/08/17 07:31:32;;;;;;;4.22;1.40;;;;;;;22.77;100.00;100944.06;10503579;28;20298;-75
2022/08/17 07:36:34;;;;;;;2.72;1.55;;;;;;;22.70;100.00;100942.50;10505891;28;20037;-74
2022/08/17 07:41:40;;;;;;;4.45;1.75;;;;;;;23.07;100.00;100954.72;10471127;28;20049;-76
2022/08/17 07:52:39;;;;;;;6.30;1.60;;;;;;;23.56;100.00;100944.69;10335713;28;20057;-76
2022/08/17 07:57:57;;;;;;;1.70;1.23;;;;;;;23.71;100.00;100951.31;10421036;28;20463;-74
2022/08/17 08:03:13;;;;;;;2.30;1.45;;;;;;;23.44;100.00;100951.16;10465897;28;20040;-74
2022/08/17 08:08:25;;;;;;;2.10;1.48;;;;;;;23.44;100.00;100951.16;10502270;28;20479;-76
2022/08/17 08:13:29;;;;;;;6.85;1.67;;;;;;;23.62;100.00;100954.19;10484217;28;20127;-76
2022/08/17 08:18:34;;;;;;;3.35;1.30;;;;;;;23.34;100.00;100954.06;10492009;28;20463;-81
2022/08/17 08:24:24;;;;;;;4.05;2.25;;;;;;;23.56;100.00;100965.72;10479276;28;20048;-81
2022/08/17 08:29:40;;;;;;;3.53;1.20;;;;;;;23.91;100.00;100960.38;10460397;28;20050;-77
2022/08/17 08:35:06;;;;;;;1.23;1.05;;;;;;;23.65;100.00;100961.97;10482725;28;20076;-80
2022/08/17 08:40:29;;;;;;;2.25;1.67;;;;;;;24.71;100.00;100963.25;10468573;28;20064;-78
2022/08/17 08:45:40;;;;;;;3.47;2.13;;;;;;;25.09;100.00;100951.50;10453908;28;20058;-79
2022/08/17 08:50:55;;;;;;;3.90;2.20;;;;;;;25.08;100.00;100955.03;10475508;28;20487;-77
2022/08/17 08:56:29;;;;;;;2.20;1.30;;;;;;;25.92;100.00;100948.56;10495586;28;20045;-82
2022/08/17 09:01:59;;;;;;;1.90;1.42;;;;;;;26.28;100.00;100944.59;10484709;28;20115;-78
2022/08/17 09:07:06;;;;;;;4.15;1.45;;;;;;;25.97;100.00;100941.31;10490359;28;20039;-78
2022/08/17 09:12:30;;;;;;;1.45;1.00;;;;;;;26.32;100.00;100940.06;10465233;28;20090;-77
2022/08/17 09:17:42;;;;;;;2.78;1.73;;;;;;;26.48;100.00;100929.72;10464893;28;20036;-76
2022/08/17 09:22:49;;;;;;;2.15;1.77;;;;;;;26.77;100.00;100939.09;10465573;28;20056;-77
2022/08/17 09:27:59;;;;;;;1.75;1.55;;;;;;;26.63;100.00;100939.66;10480303;28;20048;-77
2022/08/17 09:33:07;;;;;;;3.50;1.45;;;;;;;27.05;100.00;100936.16;10444501;28;20435;-77
2022/08/17 09:38:20;;;;;;;3.65;1.52;;;;;;;26.87;98.06;100929.88;10490067;28;20075;-77
2022/08/17 09:43:53;;;;;;;1.70;1.27;;;;;;;26.74;100.00;100934.78;10450214;28;20048;-78
2022/08/17 09:49:10;;;;;;;2.17;1.52;;;;;;;26.03;100.00;100937.59;10462691;28;20067;-78
2022/08/17 09:54:39;;;;;;;2.40;1.33;;;;;;;26.05;100.00;100938.41;10459074;28;20052;-78
2022/08/17 10:00:15;;;;;;;9.98;2.63;;;;;;;26.28;100.00;100934.88;10437185;28;20080;-78
2022/08/17 10:05:21;;;;;;;0.68;0.60;;;;;;;26.06;100.00;100926.03;10442896;28;20052;-78
2022/08/17 10:10:52;;;;;;;2.58;1.20;;;;;;;25.57;100.00;100931.38;10469416;28;20053;-79
2022/08/17 10:16:06;;;;;;;1.55;1.23;;;;;;;25.61;100.00;100933.88;10442528;28;20045;-76
2022/08/17 10:26:39;;;;;;;2.50;1.23;;;;;;;25.24;100.00;100924.59;10467606;28;20032;-79
2022/08/17 10:32:07;;;;;;;1.20;1.08;;;;;;;25.40;100.00;100918.81;10446822;28;20053;-79
2022/08/17 10:37:27;;;;;;;1.42;0.77;;;;;;;25.49;100.00;100921.97;10442070;28;20056;-81
2022/08/17 10:42:36;;;;;;;2.58;1.65;;;;;;;25.41;100.00;100924.03;10467674;28;20045;-80
2022/08/17 10:48:04;;;;;;;1.10;0.73;;;;;;;25.52;100.00;100944.75;10489841;28;20040;-80
2022/08/17 10:53:08;;;;;;;1.50;1.15;;;;;;;25.51;100.00;100940.38;10450052;28;20076;-83
2022/08/17 11:05:15;;;;;;;1.48;0.82;;;;;;;25.98;100.00;100943.03;10309175;28;20525;-79
2022/08/17 11:10:44;;;;;;;1.70;1.23;;;;;;;26.12;100.00;100941.69;10451707;28;20591;-79
2022/08/17 11:16:33;;;;;;;1.65;1.05;;;;;;;26.18;100.00;100953.78;10462753;28;20044;-79
2022/08/17 11:22:00;;;;;;;2.60;1.27;;;;;;;25.98;100.00;100972.06;10469171;28;20050;-79
2022/08/17 11:27:05;;;;;;;2.55;1.77;;;;;;;26.24;100.00;100975.53;10446347;28;20142;-79
2022/08/17 11:32:25;;;;;;;1.10;1.00;;;;;;;25.54;100.00;100974.56;10467688;28;20053;-79
2022/08/17 11:38:01;;;;;;;4.97;2.25;;;;;;;25.39;100.00;100975.13;10494599;28;20064;-79
2022/08/17 11:43:27;;;;;;;1.73;1.13;;;;;;;25.50;100.00;100979.09;10488733;28;20063;-78
2022/08/17 11:54:28;;;;;;;1.67;0.90;;;;;;;25.44;100.00;100979.31;10495946;28;20101;-79
2022/08/17 11:59:39;;;;;;;2.25;1.38;;;;;;;25.10;100.00;100969.03;10471169;28;20040;-80
2022/08/17 12:05:15;;;;;;;2.80;0.90;;;;;;;24.85;100.00;100988.28;10448146;28;20075;-78
2022/08/17 12:10:20;;;;;;;2.00;1.30;;;;;;;24.64;100.00;101003.84;10484407;28;20082;-79
2022/08/17 12:15:33;;;;;;;1.65;1.42;;;;;;;24.79;100.00;101017.47;10449936;28;20057;-78
2022/08/17 12:20:39;;;;;;;4.25;2.00;;;;;;;24.16;100.00;101055.31;10486148;28;20488;-78
2022/08/17 12:25:54;;;;;;;5.50;2.55;;;;;;;23.62;100.00;101090.94;10474928;28;20049;-78
2022/08/17 12:31:01;;;;;;;2.25;1.42;;;;;;;23.49;100.00;101094.78;10447413;28;20072;-79
2022/08/17 12:36:07;;;;;;;5.30;1.67;;;;;;;23.29;100.00;101085.63;10483014;28;20045;-79
2022/08/17 12:41:27;;;;;;;3.83;1.75;;;;;;;23.24;100.00;101079.63;10463580;28;20051;-79
2022/08/17 12:46:45;;;;;;;1.77;1.48;;;;;;;23.12;100.00;101071.06;10479529;28;20043;-80
2022/08/17 12:51:47;;;;;;;1.95;1.27;;;;;;;22.79;100.00;101073.59;10432381;28;20200;-80
2022/08/17 12:56:49;;;;;;;1.98;1.70;;;;;;;22.37;100.00;101089.34;10468153;28;20406;-82
2022/08/17 13:01:51;;;;;;;3.03;1.85;;;;;;;22.24;100.00;101137.72;10489544;28;20075;-80
2022/08/17 13:06:54;;;;;;;2.25;2.05;;;;;;;21.96;100.00;101139.09;10501890;28;20098;-83
2022/08/17 13:12:01;;;;;;;3.35;1.85;;;;;;;21.79;100.00;101142.00;10493931;28;20132;-80
2022/08/17 13:17:05;;;;;;;4.38;1.95;;;;;;;21.59;100.00;101115.25;10457374;28;20081;-79
2022/08/17 13:22:13;;;;;;;6.10;2.80;;;;;;;21.56;100.00;101156.31;10457103;28;20076;-80
2022/08/17 13:27:19;;;;;;;2.72;2.10;;;;;;;21.66;100.00;101178.06;10479394;28;20045;-80
2022/08/17 13:32:40;;;;;;;4.13;2.10;;;;;;;21.54;100.00;101214.91;10466626;28;20052;-80
2022/08/17 13:38:02;;;;;;;5.07;2.78;;;;;;;21.30;100.00;101268.56;10486714;28;20045;-80
2022/08/17 13:43:04;;;;;;;2.93;2.10;;;;;;;21.42;100.00;101263.13;10476565;28;20048;-81
2022/08/17 13:48:14;;;;;;;4.93;2.65;;;;;;;21.27;100.00;101258.09;10465740;28;20053;-80
2022/08/17 13:53:29;;;;;;;2.60;1.83;;;;;;;20.76;100.00;101256.94;10447826;28;20052;-79
2022/08/17 13:58:50;;;;;;;3.63;2.10;;;;;;;20.92;100.00;101289.09;10479993;28;20095;-80
2022/08/17 14:03:52;;;;;;;7.60;3.07;;;;;;;20.94;100.00;101286.44;10465318;28;20045;-81
2022/08/17 14:08:54;;;;;;;2.83;1.90;;;;;;;21.12;100.00;101291.47;10458956;28;20102;-81
2022/08/17 14:13:57;;;;;;;3.75;2.47;;;;;;;21.45;100.00;101283.19;10455772;28;20051;-80
2022/08/17 14:18:59;;;;;;;3.13;2.05;;;;;;;21.40;100.00;101281.50;10447337;28;20045;-80
2022/08/17 14:24:06;;;;;;;4.18;2.47;;;;;;;21.64;100.00;101275.97;10461030;28;20052;-81
2022/08/17 14:29:07;;;;;;;2.80;2.08;;;;;;;21.89;100.00;101262.50;10464217;28;20048;-83
2022/08/17 14:34:16;;;;;;;4.33;2.67;;;;;;;21.59;100.00;101255.09;10475884;28;20072;-82
2022/08/17 14:39:19;;;;;;;3.85;2.08;;;;;;;21.69;100.00;101246.19;10471424;28;20079;-82
2022/08/17 14:44:21;;;;;;;2.95;1.80;;;;;;;21.80;100.00;101242.53;10460172;28;20131;-82
2022/08/17 14:49:24;;;;;;;7.22;2.95;;;;;;;21.87;100.00;101245.03;10517960;28;20473;-82
2022/08/17 14:54:26;;;;;;;5.30;2.00;;;;;;;22.03;100.00;101229.03;10496046;28;20062;-82
2022/08/17 14:59:35;;;;;;;3.35;2.75;;;;;;;22.00;100.00;101224.72;10505919;28;20040;-82
2022/08/17 15:04:38;;;;;;;3.65;2.55;;;;;;;22.09;100.00;101226.31;10469794;28;20056;-82
2022/08/17 15:09:45;;;;;;;8.82;4.90;;;;;;;22.51;100.00;101220.34;10478949;28;20037;-83
2022/08/17 15:14:48;;;;;;;3.05;2.00;;;;;;;22.65;100.00;101196.47;10486324;28;20224;-83
2022/08/17 15:26:53;;;;;;;5.82;3.25;;;;;;;22.84;100.00;101207.47;10194032;28;20458;-81
2022/08/17 15:31:55;;;;;;;4.82;2.70;;;;;;;22.77;100.00;101183.06;10475907;28;20064;-82
2022/08/17 15:37:01;;;;;;;4.32;2.13;;;;;;;22.64;100.00;101164.06;10483358;28;20433;-82
2022/08/17 15:42:04;;;;;;;4.93;2.88;;;;;;;23.02;100.00;101174.69;10471059;28;20488;-81
2022/08/17 15:47:06;;;;;;;4.57;3.58;;;;;;;23.19;100.00;101157.72;10497846;28;20315;-81
2022/08/17 15:52:20;;;;;;;3.15;1.92;;;;;;;22.93;100.00;101160.00;10467762;28;20063;-81
2022/08/17 15:57:24;;;;;;;3.05;2.15;;;;;;;22.82;100.00;101157.56;10473029;28;20037;-81
2022/08/17 16:02:30;;;;;;;3.33;2.53;;;;;;;22.65;100.00;101176.31;10455661;28;20556;-81
2022/08/17 16:07:52;;;;;;;2.60;2.10;;;;;;;22.53;100.00;101194.94;10480414;28;20033;-82
2022/08/17 16:12:57;;;;;;;4.32;2.38;;;;;;;22.49;100.00;101186.25;10491508;28;20411;-81
2022/08/17 16:17:59;;;;;;;2.97;1.60;;;;;;;22.61;100.00;101185.16;10466569;28;20067;-81
2022/08/17 16:23:01;;;;;;;2.55;1.85;;;;;;;22.40;100.00;101191.69;10466314;28;20052;-81
2022/08/17 16:28:05;;;;;;;3.92;1.95;;;;;;;22.45;100.00;101205.56;10459277;28;20423;-82
2022/08/17 16:33:10;;;;;;;1.42;1.10;;;;;;;22.39;100.00;101207.47;10479333;28;20059;-81
2022/08/17 16:38:12;;;;;;;1.83;1.27;;;;;;;22.60;100.00;101211.47;10491248;28;20040;-82
2022/08/17 16:43:14;;;;;;;2.78;1.85;;;;;;;22.36;100.00;101221.47;10483170;28;20049;-81
2022/08/17 16:48:17;;;;;;;2.60;1.75;;;;;;;22.59;100.00;101222.84;10449783;28;20488;-81
2022/08/17 16:53:18;;;;;;;1.38;1.27;;;;;;;22.32;100.00;101219.78;10445589;28;20415;-82
2022/08/17 16:58:20;;;;;;;2.63;1.42;;;;;;;22.43;100.00;101215.25;10434645;28;20048;-81
2022/08/17 17:03:24;;;;;;;2.65;1.50;;;;;;;22.32;100.00;101227.66;10480938;28;20055;-81
2022/08/17 17:08:42;;;;;;;1.25;1.10;;;;;;;22.52;100.00;101223.88;10474879;28;20052;-81
2022/08/17 17:13:58;;;;;;;4.20;2.17;;;;;;;22.70;100.00;101215.63;10469344;28;20086;-81
2022/08/17 17:19:17;;;;;;;2.83;1.52;;;;;;;22.20;100.00;101210.38;10464304;28;20451;-81
2022/08/17 17:24:54;;;;;;;4.25;2.30;;;;;;;22.47;100.00;101198.53;10459935;28;20063;-81
2022/08/17 17:30:14;;;;;;;2.97;1.60;;;;;;;22.26;100.00;101181.44;10466320;28;20391;-81
2022/08/17 17:35:30;;;;;;;1.70;1.25;;;;;;;21.89;100.00;101199.56;10476072;28;20093;-81
2022/08/17 17:40:38;;;;;;;1.33;1.07;;;;;;;21.97;100.00;101213.41;10470031;28;20041;-82
2022/08/17 17:45:50;;;;;;;1.90;1.67;;;;;;;21.91;100.00;101218.75;10466629;28;20049;-81
2022/08/17 17:51:13;;;;;;;1.75;1.50;;;;;;;21.81;100.00;101241.66;10461986;28;20412;-81
2022/08/17 17:56:48;;;;;;;2.40;1.58;;;;;;;21.67;100.00;101273.31;10456215;28;20041;-82
2022/08/17 18:07:56;;;;;;;2.20;1.55;;;;;;;21.39;100.00;101285.00;10434361;28;20048;-81
2022/08/17 18:13:16;;;;;;;2.53;1.75;;;;;;;21.62;100.00;101281.25;10462918;28;20040;-82
2022/08/17 18:18:36;;;;;;;2.80;1.27;;;;;;;21.51;100.00;101276.13;10474457;28;20056;-82
2022/08/17 18:23:49;;;;;;;2.00;1.75;;;;;;;21.48;100.00;101268.28;10479043;28;20133;-82
2022/08/17 18:28:52;;;;;;;1.88;1.40;;;;;;;21.19;100.00;101277.41;10432018;28;20052;-82
2022/08/17 18:34:20;;;;;;;1.83;1.25;;;;;;;20.99;100.00;101298.63;10460773;28;20062;-82
2022/08/17 18:39:41;;;;;;;3.10;2.25;;;;;;;20.97;100.00;101299.50;10446658;28;20044;-80
2022/08/17 18:44:44;;;;;;;1.25;0.90;;;;;;;20.98;100.00;101288.13;10457239;28;20621;-82
2022/08/17 18:50:17;;;;;;;0.47;0.32;;;;;;;20.86;100.00;101283.91;10471056;28;20053;-82
2022/08/17 18:55:27;;;;;;;2.72;1.42;;;;;;;20.79;100.00;101293.59;10480043;28;20123;-81
2022/08/17 19:00:34;;;;;;;2.88;1.77;;;;;;;20.66;100.00;101302.44;10457025;28;20075;-82
2022/08/17 19:05:46;;;;;;;2.28;0.95;;;;;;;20.64;100.00;101309.41;10453940;28;20400;-82
2022/08/17 19:10:57;;;;;;;3.85;1.55;;;;;;;20.72;100.00;101324.19;10459598;28;20049;-81
2022/08/17 19:16:18;;;;;;;1.10;0.60;;;;;;;20.22;100.00;101322.84;10447288;28;20060;-81
2022/08/17 19:28:43;;;;;;;2.90;1.20;;;;;;;20.35;100.00;101344.56;10462912;28;20037;-78
2022/08/17 19:33:49;;;;;;;4.95;2.55;;;;;;;20.07;100.00;101352.59;10444660;28;20283;-77
2022/08/17 19:39:03;;;;;;;3.95;1.85;;;;;;;19.85;100.00;101371.03;10462059;28;20047;-78
2022/08/17 19:44:14;;;;;;;2.60;1.77;;;;;;;19.96;100.00;101376.19;10445865;28;20124;-77
2022/08/17 19:49:35;;;;;;;3.67;2.38;;;;;;;19.81;100.00;101370.13;10462868;28;20037;-78
2022/08/17 19:54:57;;;;;;;5.07;2.65;;;;;;;19.60;100.00;101394.66;10445245;28;20052;-78
2022/08/17 20:00:12;;;;;;;7.72;2.55;;;;;;;19.68;100.00;101412.91;10463027;28;20061;-78
2022/08/17 20:05:31;;;;;;;7.40;3.17;;;;;;;19.75;100.00;101385.00;10444370;28;20044;-78
2022/08/17 20:11:19;;;;;;;7.18;2.75;;;;;;;19.72;100.00;101388.50;10450601;28;20052;-78
2022/08/17 20:16:21;;;;;;;5.88;3.10;;;;;;;19.54;100.00;101391.19;10476265;28;20040;-78
2022/08/17 20:21:40;;;;;;;5.18;3.70;;;;;;;19.46;100.00;101431.28;10449828;28;20056;-78
2022/08/17 20:26:51;;;;;;;5.33;3.20;;;;;;;19.74;100.00;101431.16;10445587;28;20045;-77
2022/08/17 20:31:59;;;;;;;6.63;2.83;;;;;;;19.67;100.00;101413.78;10469420;28;20084;-77
2022/08/17 20:37:16;;;;;;;6.55;4.20;;;;;;;19.68;100.00;101420.75;10451532;28;20080;-78
2022/08/17 20:42:20;;;;;;;3.75;3.33;;;;;;;19.59;100.00;101432.09;10463762;28;20057;-77
2022/08/17 20:47:30;;;;;;;3.25;2.70;;;;;;;19.66;100.00;101431.22;10459635;28;20396;-77
2022/08/17 20:52:49;;;;;;;7.47;3.78;;;;;;;19.65;100.00;101439.94;10462871;28;20072;-78
2022/08/17 20:57:51;;;;;;;6.70;3.28;;;;;;;19.70;100.00;101439.03;10518646;28;20087;-78
2022/08/17 21:03:25;;;;;;;4.68;2.83;;;;;;;19.71;100.00;101432.94;10502405;28;20135;-77
2022/08/17 21:08:34;;;;;;;5.47;3.10;;;;;;;19.71;100.00;101438.16;10499820;28;20044;-78
2022/08/17 21:13:49;;;;;;;6.28;3.65;;;;;;;19.61;100.00;101430.38;10516431;28;20124;-78
2022/08/17 21:19:18;;;;;;;6.05;3.75;;;;;;;19.70;100.00;101442.53;10482368;28;20116;-78
2022/08/17 21:24:47;;;;;;;9.02;3.35;;;;;;;19.75;100.00;101416.38;10494458;28;20048;-78
2022/08/17 21:30:13;;;;;;;4.75;2.13;;;;;;;19.82;100.00;101384.09;10494425;28;20044;-78
2022/08/17 21:35:18;;;;;;;4.22;2.13;;;;;;;19.71;100.00;101378.91;10505333;28;20098;-78
2022/08/17 21:40:27;;;;;;;4.15;2.33;;;;;;;19.66;100.00;101375.44;10502073;28;20044;-78
2022/08/17 21:45:36;;;;;;;2.88;2.15;;;;;;;19.68;100.00;101384.16;10473213;28;20053;-77
2022/08/17 21:50:40;;;;;;;3.95;1.92;;;;;;;19.73;100.00;101371.91;10487708;28;20064;-77
2022/08/17 21:55:47;;;;;;;4.97;3.08;;;;;;;19.48;100.00;101405.13;10486782;28;20090;-78
2022/08/17 22:01:19;;;;;;;8.20;3.50;;;;;;;19.36;100.00;101423.47;10484703;28;20488;-78
2022/08/17 22:06:32;;;;;;;5.32;3.30;;;;;;;18.92;100.00;101433.06;10485088;28;20060;-78
2022/08/17 22:11:55;;;;;;;6.78;2.95;;;;;;;19.25;100.00;101436.53;10484414;28;20104;-77
2022/08/17 22:17:29;;;;;;;3.80;2.70;;;;;;;19.32;100.00;101405.16;10480619;28;20110;-78
2022/08/17 22:28:36;;;;;;;3.10;2.03;;;;;;;19.07;100.00;101395.66;10463511;28;20048;-78
2022/08/17 22:34:00;;;;;;;1.92;1.77;;;;;;;19.03;100.00;101390.41;10444437;28;20055;-78
2022/08/17 22:39:08;;;;;;;5.40;2.85;;;;;;;18.96;100.00;101383.47;10491284;28;20037;-80
2022/08/17 22:44:21;;;;;;;4.90;2.55;;;;;;;18.87;100.00;101420.88;10512211;28;20041;-82
2022/08/17 22:49:32;;;;;;;8.85;3.58;;;;;;;19.01;100.00;101436.59;10471977;28;20108;-80
2022/08/17 22:59:54;;;;;;;3.10;1.88;;;;;;;19.06;100.00;101420.03;10499596;28;20369;-79
2022/08/17 23:05:40;;;;;;;4.35;1.85;;;;;;;19.15;100.00;101415.66;10503540;28;20068;-79
2022/08/17 23:10:45;;;;;;;3.10;2.50;;;;;;;19.27;100.00;101425.22;10489472;28;20087;-79
2022/08/17 23:15:49;;;;;;;5.13;2.58;;;;;;;19.08;100.00;101465.28;10512609;28;20052;-79
2022/08/17 23:21:06;;;;;;;5.70;2.88;;;;;;;18.94;100.00;101483.56;10475527;28;20128;-82
2022/08/17 23:26:10;;;;;;;7.43;3.72;;;;;;;19.05;100.00;101507.06;10511004;28;20051;-82
2022/08/17 23:31:17;;;;;;;6.45;4.00;;;;;;;19.10;100.00;101506.22;10470358;28;20112;-82
2022/08/17 23:36:51;;;;;;;7.03;4.15;;;;;;;19.30;100.00;101502.69;10490838;28;20049;-82
2022/08/17 23:41:55;;;;;;;5.45;3.28;;;;;;;19.52;100.00;101472.19;10504688;28;20045;-82
2022/08/17 23:46:57;;;;;;;3.28;2.40;;;;;;;19.62;100.00;101426.84;10514138;28;20072;-83
2022/08/17 23:52:00;;;;;;;3.00;2.63;;;;;;;19.18;100.00;101415.66;10498644;28;20523;-85
2022/08/17 23:58:09;;;;;;;4.40;2.78;;;;;;;19.11;100.00;101420.88;10472976;28;20057;-82
